Time;durP1;ratioP1;P1;durP2;ratioP2;P2;SDS_P1;SDS_P2;PMS_P1;PMS_P2;Temp;Humidity;BMP_temperature;BMP_pressure;BME280_temperature;BME280_humidity;BME280_pressure;Samples;Min_cycle;Max_cycle;Signal;HPM_P1;HPM_P2
2022/10/03 00:01:38;;;;;;;40.90;7.22;;;23.10;99.90;;;;;;5008144;28;20857;-66
2022/10/03 00:04:43;;;;;;;28.10;6.55;;;23.10;99.90;;;;;;5006763;28;20821;-66
2022/10/03 00:07:44;;;;;;;34.07;6.97;;;23.00;99.90;;;;;;5016665;28;20220;-66
2022/10/03 00:10:52;;;;;;;32.00;6.50;;;23.00;99.90;;;;;;4997036;28;20191;-66
2022/10/03 00:13:27;;;;;;;26.67;6.80;;;22.90;99.90;;;;;;4986019;28;20649;-66
2022/10/03 00:16:32;;;;;;;32.28;6.32;;;22.90;99.90;;;;;;5003238;28;20191;-66
2022/10/03 00:19:21;;;;;;;28.23;6.60;;;22.80;99.90;;;;;;5011858;28;20295;-66
2022/10/03 00:22:03;;;;;;;39.00;6.38;;;22.90;99.90;;;;;;5000133;28;20216;-66
2022/10/03 00:24:42;;;;;;;29.17;6.57;;;22.90;99.90;;;;;;5008569;28;20566;-66
2022/10/03 00:27:46;;;;;;;33.20;5.77;;;22.80;99.90;;;;;;5011137;28;20329;-66
2022/10/03 00:30:23;;;;;;;29.23;6.00;;;22.80;99.90;;;;;;4997535;28;20197;-66
2022/10/03 00:33:35;;;;;;;38.83;5.90;;;22.70;99.90;;;;;;4992997;28;20647;-65
2022/10/03 00:36:19;;;;;;;33.63;6.87;;;22.60;99.90;;;;;;4990219;28;20204;-66
2022/10/03 00:39:29;;;;;;;29.48;6.35;;;22.60;99.90;;;;;;5001994;28;20180;-66
2022/10/03 00:42:34;;;;;;;28.93;6.47;;;22.50;99.90;;;;;;5007499;28;20203;-66
2022/10/03 00:46:09;;;;;;;29.70;6.97;;;22.50;99.90;;;;;;5014936;28;20196;-66
2022/10/03 00:49:06;;;;;;;29.58;6.75;;;22.40;99.90;;;;;;5009340;28;20985;-66
2022/10/03 00:51:57;;;;;;;29.55;6.70;;;22.40;99.90;;;;;;5014922;28;20444;-66
2022/10/03 00:54:51;;;;;;;31.27;6.03;;;22.40;99.90;;;;;;4988611;28;20176;-66
2022/10/03 00:57:49;;;;;;;27.93;5.47;;;22.40;99.90;;;;;;4999980;28;20231;-66
2022/10/03 01:00:29;;;;;;;28.02;5.88;;;22.40;99.90;;;;;;5009533;28;20215;-66
2022/10/03 01:03:13;;;;;;;33.00;6.53;;;22.30;99.90;;;;;;5010276;28;20180;-66
2022/10/03 01:06:27;;;;;;;32.40;6.63;;;22.30;99.90;;;;;;5019216;28;20361;-66
2022/10/03 01:09:11;;;;;;;33.33;5.80;;;22.30;99.90;;;;;;4988146;28;20192;-66
2022/10/03 01:12:33;;;;;;;38.60;6.73;;;22.30;99.90;;;;;;4997066;28;20282;-66
2022/10/03 01:15:37;;;;;;;33.90;6.33;;;22.30;99.90;;;;;;4977625;28;20189;-66
2022/10/03 01:18:23;;;;;;;30.37;6.50;;;22.30;99.90;;;;;;5003779;28;20188;-66
2022/10/03 01:21:27;;;;;;;30.43;7.47;;;22.30;99.90;;;;;;4972635;28;20197;-66
2022/10/03 01:24:12;;;;;;;32.53;7.13;;;22.30;99.90;;;;;;5007371;28;20220;-66
2022/10/03 01:27:02;;;;;;;29.77;6.50;;;22.30;99.90;;;;;;4990223;28;20184;-66
2022/10/03 01:32:58;;;;;;;28.53;6.30;;;22.30;99.90;;;;;;5009979;28;20211;-66
2022/10/03 01:35:43;;;;;;;28.20;7.10;;;22.20;99.90;;;;;;5008408;28;20292;-66
2022/10/03 01:38:33;;;;;;;30.63;6.43;;;22.10;99.90;;;;;;4988950;28;20207;-66
2022/10/03 01:41:24;;;;;;;32.08;7.18;;;22.20;99.90;;;;;;5006093;28;20446;-66
2022/10/03 01:44:05;;;;;;;38.10;7.10;;;22.20;99.90;;;;;;4995185;28;20185;-66
2022/10/03 01:46:42;;;;;;;32.93;6.83;;;22.20;99.90;;;;;;5007779;28;20193;-66
2022/10/03 01:49:24;;;;;;;31.87;7.67;;;22.20;99.90;;;;;;5013258;28;20177;-66
2022/10/03 01:52:10;;;;;;;30.37;6.70;;;22.20;99.90;;;;;;5009856;28;20270;-66
2022/10/03 01:55:08;;;;;;;32.57;7.07;;;22.30;99.90;;;;;;5007191;28;20623;-66
2022/10/03 01:57:53;;;;;;;28.43;6.43;;;22.20;99.90;;;;;;5009322;28;20185;-66
2022/10/03 02:00:25;;;;;;;33.33;7.03;;;22.20;99.90;;;;;;5009536;28;20189;-66
2022/10/03 02:03:18;;;;;;;29.03;6.30;;;22.20;99.90;;;;;;5008364;28;20523;-66
2022/10/03 02:06:28;;;;;;;34.70;6.63;;;22.10;99.90;;;;;;5002484;28;20226;-66
2022/10/03 02:09:25;;;;;;;39.17;7.15;;;22.10;99.90;;;;;;5006509;28;20260;-66
2022/10/03 02:12:21;;;;;;;30.13;6.60;;;22.10;99.90;;;;;;5002993;28;20221;-66
2022/10/03 02:15:24;;;;;;;33.17;7.10;;;22.00;99.90;;;;;;4987162;28;20268;-65
2022/10/03 02:17:54;;;;;;;34.83;7.13;;;22.00;99.90;;;;;;5009561;28;20186;-66
2022/10/03 02:20:44;;;;;;;33.37;6.63;;;22.00;99.90;;;;;;4991749;28;20192;-66
2022/10/03 02:23:30;;;;;;;33.53;6.70;;;22.00;99.90;;;;;;5006774;28;20184;-66
2022/10/03 02:26:26;;;;;;;35.77;7.00;;;22.00;99.90;;;;;;4997796;28;20205;-66
2022/10/03 02:29:20;;;;;;;26.97;6.03;;;22.00;99.90;;;;;;5003131;28;20196;-66
2022/10/03 02:32:26;;;;;;;25.67;6.13;;;21.90;99.90;;;;;;5009385;28;20236;-66
2022/10/03 02:35:34;;;;;;;34.00;6.57;;;22.00;99.90;;;;;;5012700;28;20835;-66
2022/10/03 02:38:55;;;;;;;33.43;6.70;;;21.90;99.90;;;;;;4989652;28;20216;-66
2022/10/03 02:42:03;;;;;;;30.43;6.53;;;21.90;99.90;;;;;;5001472;28;20193;-64
2022/10/03 02:45:14;;;;;;;30.00;6.83;;;22.00;99.90;;;;;;5017917;28;20197;-65
2022/10/03 02:48:23;;;;;;;31.03;6.37;;;22.00;99.90;;;;;;5012732;28;20771;-66
2022/10/03 02:51:18;;;;;;;32.40;6.60;;;22.00;99.90;;;;;;4992777;28;20217;-66
2022/10/03 02:54:39;;;;;;;33.87;6.53;;;22.00;99.90;;;;;;4975700;28;20181;-66
2022/10/03 02:57:35;;;;;;;30.97;6.77;;;21.90;99.90;;;;;;5000134;28;20917;-66
2022/10/03 03:00:40;;;;;;;30.23;6.67;;;21.80;99.90;;;;;;5007747;28;20204;-66
2022/10/03 03:04:00;;;;;;;44.40;7.67;;;21.90;99.90;;;;;;4988416;28;20239;-66
2022/10/03 03:07:19;;;;;;;35.93;6.83;;;21.90;99.90;;;;;;4990421;28;20204;-66
2022/10/03 03:10:32;;;;;;;35.07;6.93;;;21.90;99.90;;;;;;5010998;28;20658;-66
2022/10/03 03:13:03;;;;;;;35.47;6.43;;;21.90;99.90;;;;;;4995258;28;20193;-66
2022/10/03 03:15:57;;;;;;;38.50;6.63;;;21.90;99.90;;;;;;5008898;28;20184;-66
2022/10/03 03:19:15;;;;;;;32.50;7.17;;;21.90;99.90;;;;;;5011191;28;20185;-66
2022/10/03 03:22:24;;;;;;;24.93;6.20;;;21.80;99.90;;;;;;5012396;28;20192;-66
2022/10/03 03:25:43;;;;;;;33.13;7.00;;;21.80;99.90;;;;;;5012316;28;20200;-66
2022/10/03 03:28:18;;;;;;;27.13;5.90;;;21.80;99.90;;;;;;5026800;28;20200;-66
2022/10/03 03:31:19;;;;;;;31.00;6.40;;;21.80;99.90;;;;;;5017453;28;20594;-66
2022/10/03 03:34:14;;;;;;;30.00;7.03;;;21.80;99.90;;;;;;4980107;28;21009;-66
2022/10/03 03:37:13;;;;;;;32.60;7.17;;;21.80;99.90;;;;;;4997506;28;20726;-66
2022/10/03 03:40:28;;;;;;;32.80;7.27;;;21.80;99.90;;;;;;4992397;28;20252;-66
2022/10/03 03:43:33;;;;;;;35.17;7.10;;;21.80;99.90;;;;;;4992286;28;20189;-66
2022/10/03 03:47:03;;;;;;;34.53;6.77;;;21.70;99.90;;;;;;4996018;28;20267;-66
2022/10/03 03:49:33;;;;;;;33.23;6.70;;;21.70;99.90;;;;;;4940971;28;20576;-66
2022/10/03 03:52:44;;;;;;;32.73;6.63;;;21.70;99.90;;;;;;4982073;28;20216;-65
2022/10/03 03:55:52;;;;;;;37.67;6.33;;;21.60;99.90;;;;;;4992133;28;20188;-66
2022/10/03 03:58:44;;;;;;;34.40;6.63;;;21.50;99.90;;;;;;4991944;28;20185;-66
2022/10/03 04:01:58;;;;;;;31.83;6.13;;;21.20;99.90;;;;;;5006729;28;20201;-66
2022/10/03 04:04:40;;;;;;;31.23;6.43;;;21.10;99.90;;;;;;5016846;28;20228;-66
2022/10/03 04:07:13;;;;;;;33.43;5.83;;;21.10;99.90;;;;;;4994003;28;20583;-66
2022/10/03 04:09:56;;;;;;;29.80;6.10;;;21.10;99.90;;;;;;5009340;28;20199;-65
2022/10/03 04:12:54;;;;;;;24.40;5.20;;;21.10;99.90;;;;;;4999170;28;20216;-66
2022/10/03 04:16:15;;;;;;;31.13;5.90;;;21.10;99.90;;;;;;5011538;28;20181;-66
2022/10/03 04:19:50;;;;;;;24.07;5.03;;;21.10;99.90;;;;;;5011662;28;20173;-66
2022/10/03 04:22:39;;;;;;;23.63;5.40;;;21.20;99.90;;;;;;4996067;28;20189;-66
2022/10/03 04:25:43;;;;;;;28.02;7.03;;;21.20;99.90;;;;;;5009640;28;20448;-66
2022/10/03 04:28:50;;;;;;;36.80;6.47;;;21.20;99.90;;;;;;5015272;28;20607;-66
2022/10/03 04:31:40;;;;;;;37.03;6.13;;;21.20;99.90;;;;;;5013501;28;20212;-66
2022/10/03 04:35:00;;;;;;;32.03;6.60;;;21.20;99.90;;;;;;5007698;28;20197;-66
2022/10/03 04:38:27;;;;;;;32.47;5.80;;;21.20;99.90;;;;;;5021408;28;20192;-66
2022/10/03 04:41:42;;;;;;;22.08;6.00;;;21.20;99.90;;;;;;4972201;28;20407;-66
2022/10/03 04:44:14;;;;;;;26.37;5.90;;;21.10;99.90;;;;;;4991652;28;20180;-66
2022/10/03 04:46:53;;;;;;;33.77;6.27;;;21.10;99.90;;;;;;4973964;28;20181;-66
2022/10/03 04:50:09;;;;;;;32.77;6.57;;;21.10;99.90;;;;;;5002767;28;20185;-66
2022/10/03 04:53:22;;;;;;;22.80;5.27;;;21.20;99.90;;;;;;4988056;28;20221;-66
2022/10/03 04:56:37;;;;;;;25.57;5.73;;;21.30;99.90;;;;;;5004117;28;20256;-66
2022/10/03 04:59:35;;;;;;;25.80;5.30;;;21.30;99.90;;;;;;5010582;28;20192;-66
2022/10/03 05:02:29;;;;;;;28.80;5.67;;;21.40;99.90;;;;;;5010940;28;20327;-66
2022/10/03 05:08:24;;;;;;;26.97;4.77;;;21.50;99.90;;;;;;5005675;28;20180;-66
2022/10/03 05:11:05;;;;;;;23.00;4.80;;;21.50;99.90;;;;;;5008568;28;20231;-66
2022/10/03 05:13:50;;;;;;;23.63;5.20;;;21.60;99.90;;;;;;4992023;28;20177;-66
2022/10/03 05:16:48;;;;;;;22.23;4.97;;;21.80;99.90;;;;;;5008331;28;20180;-67
2022/10/03 05:20:04;;;;;;;19.73;4.30;;;21.90;99.90;;;;;;5010410;28;20180;-66
2022/10/03 05:23:08;;;;;;;29.97;4.70;;;21.90;99.90;;;;;;5006994;28;20189;-66
2022/10/03 05:26:08;;;;;;;18.40;4.33;;;22.00;99.90;;;;;;5009471;28;20207;-66
2022/10/03 05:28:44;;;;;;;19.17;4.17;;;22.10;99.90;;;;;;4994344;28;20721;-66
2022/10/03 05:31:43;;;;;;;11.97;3.80;;;22.10;99.90;;;;;;5010190;28;20231;-66
2022/10/03 05:34:35;;;;;;;20.87;4.50;;;22.10;99.90;;;;;;5009355;28;20200;-66
2022/10/03 05:37:40;;;;;;;19.43;4.80;;;22.20;99.90;;;;;;4998223;28;20191;-66
2022/10/03 05:40:24;;;;;;;16.60;4.10;;;22.20;99.90;;;;;;5001093;28;20658;-66
2022/10/03 05:42:54;;;;;;;20.80;4.40;;;22.30;99.90;;;;;;5004182;28;20277;-67
2022/10/03 05:45:48;;;;;;;21.90;4.40;;;22.40;99.90;;;;;;5009925;28;20188;-66
2022/10/03 05:48:48;;;;;;;21.13;4.37;;;22.40;99.90;;;;;;5008285;28;20196;-66
2022/10/03 05:52:07;;;;;;;13.73;3.53;;;22.40;99.90;;;;;;5015318;28;20317;-66
2022/10/03 05:55:11;;;;;;;20.60;4.07;;;22.40;99.90;;;;;;5009980;28;20184;-66
2022/10/03 05:58:14;;;;;;;18.00;3.60;;;22.50;99.90;;;;;;5017810;28;20200;-66
2022/10/03 06:00:49;;;;;;;19.40;4.03;;;22.70;99.90;;;;;;5006959;28;20219;-66
2022/10/03 06:03:59;;;;;;;15.48;3.28;;;22.90;99.90;;;;;;5008070;28;20280;-67
2022/10/03 06:07:25;;;;;;;11.10;2.87;;;22.90;99.90;;;;;;5007303;28;20524;-66
2022/10/03 06:10:21;;;;;;;12.70;3.07;;;23.00;99.90;;;;;;4922787;29;20639;-66
2022/10/03 06:13:20;;;;;;;21.10;3.83;;;23.00;99.90;;;;;;4993127;28;20185;-67
2022/10/03 06:16:13;;;;;;;16.90;3.80;;;22.80;99.90;;;;;;5006215;28;20527;-67
2022/10/03 06:19:14;;;;;;;17.83;3.47;;;22.90;99.90;;;;;;4993724;28;20682;-66
2022/10/03 06:21:59;;;;;;;16.93;3.70;;;23.00;99.90;;;;;;5003320;28;20199;-66
2022/10/03 06:25:05;;;;;;;18.00;3.85;;;23.10;99.90;;;;;;5003692;28;20184;-66
2022/10/03 06:28:09;;;;;;;13.33;3.07;;;23.10;99.90;;;;;;5001918;28;20189;-67
2022/10/03 06:31:04;;;;;;;16.02;3.90;;;23.30;99.90;;;;;;5009988;28;20443;-67
2022/10/03 06:33:52;;;;;;;12.97;3.30;;;23.30;99.90;;;;;;4997263;28;20914;-66
2022/10/03 06:36:47;;;;;;;12.07;3.08;;;23.50;99.90;;;;;;5012067;28;20786;-67
2022/10/03 06:39:54;;;;;;;14.10;3.45;;;23.60;99.90;;;;;;4995696;28;20185;-66
2022/10/03 06:42:46;;;;;;;18.23;3.55;;;23.60;99.90;;;;;;5007466;28;20220;-66
2022/10/03 06:46:06;;;;;;;10.68;3.05;;;23.60;99.90;;;;;;5010299;28;20588;-67
2022/10/03 06:48:48;;;;;;;9.23;2.38;;;23.60;99.90;;;;;;4963495;28;20186;-66
2022/10/03 06:51:21;;;;;;;11.65;3.15;;;23.60;99.90;;;;;;4953763;28;20688;-66
2022/10/03 06:54:26;;;;;;;10.55;3.00;;;23.70;99.90;;;;;;4976484;28;20190;-67
2022/10/03 06:57:25;;;;;;;14.85;2.90;;;23.80;99.90;;;;;;5014337;28;20719;-66
2022/10/03 06:59:58;;;;;;;12.27;3.45;;;23.90;99.90;;;;;;4995999;28;20196;-66
2022/10/03 07:03:25;;;;;;;10.98;3.05;;;24.00;99.90;;;;;;5014676;28;20204;-67
2022/10/03 07:06:51;;;;;;;10.30;2.58;;;24.10;99.90;;;;;;4997144;28;20256;-66
2022/10/03 07:09:36;;;;;;;12.65;2.60;;;24.10;99.90;;;;;;4958973;28;20267;-66
2022/10/03 07:12:39;;;;;;;15.68;2.72;;;24.20;99.90;;;;;;5010698;28;20225;-66
2022/10/03 07:15:25;;;;;;;11.82;2.67;;;24.30;99.90;;;;;;4999278;28;20267;-66
2022/10/03 07:18:12;;;;;;;13.93;2.60;;;24.40;99.90;;;;;;4998052;28;20567;-66
2022/10/03 07:21:03;;;;;;;17.02;3.20;;;24.50;99.90;;;;;;4999522;28;20259;-66
2022/10/03 07:24:09;;;;;;;17.63;3.10;;;24.60;99.90;;;;;;5010705;28;20264;-66
2022/10/03 07:27:12;;;;;;;10.75;3.10;;;24.60;99.90;;;;;;5001520;28;20873;-66
2022/10/03 07:30:06;;;;;;;13.73;3.60;;;24.80;99.90;;;;;;4995276;28;20192;-66
2022/10/03 07:33:17;;;;;;;17.65;3.92;;;24.90;99.90;;;;;;5017258;28;20947;-66
2022/10/03 07:40:32;;;;;;;20.05;3.40;;;24.90;99.90;;;;;;4977497;28;20186;-66
2022/10/03 07:43:22;;;;;;;16.67;3.47;;;25.00;99.90;;;;;;5001172;28;20184;-67
2022/10/03 07:46:26;;;;;;;19.58;3.17;;;25.20;99.90;;;;;;4994656;28;20276;-66
2022/10/03 07:49:01;;;;;;;12.65;3.10;;;25.40;99.90;;;;;;5004886;28;20215;-67
2022/10/03 07:52:07;;;;;;;18.90;2.92;;;25.30;99.90;;;;;;5023473;28;20214;-67
2022/10/03 07:55:16;;;;;;;12.73;3.45;;;25.30;99.90;;;;;;5011643;28;20184;-67
2022/10/03 07:57:54;;;;;;;12.52;3.00;;;25.40;99.90;;;;;;5018200;28;20242;-67
2022/10/03 08:00:37;;;;;;;12.10;2.88;;;25.70;99.90;;;;;;5011762;28;20240;-66
2022/10/03 08:04:10;;;;;;;9.80;2.25;;;25.70;99.90;;;;;;5012364;28;20952;-67
2022/10/03 08:06:50;;;;;;;11.40;2.80;;;25.70;99.90;;;;;;5007400;28;20233;-66
2022/10/03 08:09:59;;;;;;;12.30;3.03;;;25.80;99.90;;;;;;5014066;28;20196;-66
2022/10/03 08:13:05;;;;;;;11.48;3.22;;;26.00;99.90;;;;;;5000094;28;20243;-67
2022/10/03 08:16:09;;;;;;;11.35;3.00;;;26.10;99.90;;;;;;5002765;28;20236;-66
2022/10/03 08:19:07;;;;;;;12.25;3.28;;;26.00;99.90;;;;;;5010580;28;20191;-66
2022/10/03 08:22:20;;;;;;;18.58;3.80;;;26.10;99.90;;;;;;5009958;28;20185;-66
2022/10/03 08:25:28;;;;;;;16.50;3.42;;;26.10;99.90;;;;;;4982860;28;20188;-66
2022/10/03 08:28:25;;;;;;;15.10;3.53;;;26.10;99.90;;;;;;4991545;28;20192;-66
2022/10/03 08:31:01;;;;;;;13.85;3.33;;;26.10;99.90;;;;;;5008021;28;20205;-66
2022/10/03 08:34:07;;;;;;;14.05;3.05;;;26.30;99.90;;;;;;5010601;28;20185;-66
2022/10/03 08:37:19;;;;;;;17.33;3.47;;;26.30;99.90;;;;;;5010851;28;20192;-67
2022/10/03 08:40:25;;;;;;;12.10;3.33;;;26.30;99.90;;;;;;4994780;28;20193;-67
2022/10/03 08:43:26;;;;;;;15.95;3.58;;;26.40;99.90;;;;;;5007107;28;20730;-66
2022/10/03 08:46:25;;;;;;;16.48;3.30;;;26.40;99.90;;;;;;5014964;28;20512;-66
2022/10/03 08:49:33;;;;;;;16.65;3.67;;;26.50;99.90;;;;;;4993238;28;20311;-66
2022/10/03 08:52:28;;;;;;;15.40;4.05;;;26.50;99.90;;;;;;5003603;28;20204;-66
2022/10/03 08:55:49;;;;;;;13.90;3.13;;;26.60;99.90;;;;;;5009227;28;20196;-66
2022/10/03 08:58:21;;;;;;;13.55;3.42;;;26.70;99.90;;;;;;4990104;28;20192;-64
2022/10/03 09:01:27;;;;;;;14.10;3.50;;;26.80;99.90;;;;;;5005353;28;20272;-64
2022/10/03 09:04:36;;;;;;;12.68;4.10;;;26.80;99.90;;;;;;4992626;28;20685;-65
2022/10/03 09:07:24;;;;;;;12.00;3.05;;;26.80;99.90;;;;;;5010339;28;20184;-64
2022/10/03 09:10:34;;;;;;;15.48;3.15;;;26.90;99.90;;;;;;5008410;28;20189;-64
2022/10/03 09:13:19;;;;;;;12.55;3.10;;;26.90;99.90;;;;;;5009791;28;20194;-65
2022/10/03 09:16:41;;;;;;;14.32;3.25;;;27.10;99.90;;;;;;5002080;28;20247;-65
2022/10/03 09:19:34;;;;;;;13.38;3.17;;;27.40;99.90;;;;;;4972720;28;20208;-65
2022/10/03 09:22:32;;;;;;;12.77;3.05;;;27.50;99.90;;;;;;4970853;28;20702;-65
2022/10/03 09:25:37;;;;;;;14.32;3.08;;;27.60;99.90;;;;;;5008787;28;20543;-65
2022/10/03 09:28:39;;;;;;;13.20;3.10;;;27.60;99.90;;;;;;5009990;28;20661;-65
2022/10/03 09:31:08;;;;;;;12.10;3.03;;;27.80;99.90;;;;;;5009892;28;20204;-67
2022/10/03 09:34:00;;;;;;;11.07;2.75;;;27.90;99.90;;;;;;5010066;28;20659;-66
2022/10/03 09:37:24;;;;;;;12.25;3.17;;;28.10;99.90;;;;;;5010170;28;20563;-67
2022/10/03 09:40:30;;;;;;;26.17;4.75;;;28.20;99.90;;;;;;5008604;28;20807;-67
2022/10/03 09:43:30;;;;;;;21.85;4.38;;;28.20;99.90;;;;;;4991874;28;20187;-67
2022/10/03 09:46:33;;;;;;;13.80;4.35;;;28.10;99.90;;;;;;5008292;28;20185;-67
2022/10/03 09:49:16;;;;;;;13.88;3.33;;;28.20;99.90;;;;;;5001591;28;20180;-67
2022/10/03 09:51:48;;;;;;;17.63;4.68;;;28.30;99.90;;;;;;5007693;28;20299;-67
2022/10/03 09:54:34;;;;;;;15.32;4.20;;;28.30;99.90;;;;;;4993516;28;20870;-67
2022/10/03 09:57:39;;;;;;;16.83;3.80;;;28.40;99.90;;;;;;4997232;28;20188;-67
2022/10/03 10:00:36;;;;;;;22.10;3.95;;;28.60;99.90;;;;;;5007295;28;20849;-67
2022/10/03 10:03:44;;;;;;;19.73;3.72;;;29.00;99.90;;;;;;4990351;28;20191;-67
2022/10/03 10:06:55;;;;;;;12.60;3.72;;;29.20;99.90;;;;;;4997190;28;20224;-67
2022/10/03 10:10:13;;;;;;;13.43;4.18;;;29.10;99.90;;;;;;4996817;28;20192;-67
2022/10/03 10:13:03;;;;;;;25.00;4.38;;;29.10;99.90;;;;;;5009215;28;20689;-67
2022/10/03 10:15:54;;;;;;;16.48;3.25;;;29.30;99.90;;;;;;5004458;28;20683;-67
2022/10/03 10:18:50;;;;;;;22.92;4.53;;;29.30;99.90;;;;;;4989619;28;20197;-67
2022/10/03 10:22:09;;;;;;;10.73;3.28;;;29.60;99.90;;;;;;4981967;28;20554;-66
2022/10/03 10:25:24;;;;;;;20.80;4.45;;;31.70;99.90;;;;;;4994372;28;20299;-66
2022/10/03 10:28:32;;;;;;;32.33;5.40;;;32.60;99.90;;;;;;4971601;28;20209;-66
2022/10/03 10:31:19;;;;;;;23.05;5.13;;;31.90;99.90;;;;;;4984657;28;20211;-66
2022/10/03 10:33:57;;;;;;;19.77;4.57;;;30.50;99.90;;;;;;4985903;28;20319;-67
2022/10/03 10:37:01;;;;;;;22.77;3.75;;;29.90;99.90;;;;;;4996381;28;20189;-66
2022/10/03 10:40:11;;;;;;;25.77;6.13;;;29.80;99.90;;;;;;4996006;28;20879;-66
2022/10/03 10:43:03;;;;;;;30.30;6.50;;;30.10;99.90;;;;;;4993794;28;20196;-66
2022/10/03 10:46:44;;;;;;;29.70;5.80;;;29.90;99.90;;;;;;5004951;28;20184;-66
2022/10/03 10:49:34;;;;;;;36.88;7.07;;;29.90;99.90;;;;;;5001928;28;20204;-66
2022/10/03 10:52:31;;;;;;;29.85;5.65;;;29.70;99.90;;;;;;4998540;28;20221;-66
2022/10/03 10:55:19;;;;;;;26.27;6.28;;;29.40;99.90;;;;;;5007801;28;20214;-66
2022/10/03 10:58:25;;;;;;;24.80;6.28;;;29.20;99.90;;;;;;5012048;28;20188;-66
2022/10/03 11:01:43;;;;;;;30.77;7.22;;;29.10;99.90;;;;;;5006086;28;20181;-67
2022/10/03 11:05:08;;;;;;;31.33;7.45;;;29.10;99.90;;;;;;4998870;28;20207;-67
2022/10/03 11:08:15;;;;;;;28.35;5.93;;;29.20;99.90;;;;;;5014337;28;20200;-67
2022/10/03 11:11:31;;;;;;;28.45;6.35;;;29.20;99.90;;;;;;5015725;28;20185;-67
2022/10/03 11:14:11;;;;;;;35.67;6.75;;;29.20;99.90;;;;;;5012251;28;20235;-66
2022/10/03 11:17:11;;;;;;;34.67;7.00;;;29.00;99.90;;;;;;5016890;28;20215;-67
2022/10/03 11:19:46;;;;;;;26.48;6.15;;;29.10;99.90;;;;;;4990406;28;20184;-66
2022/10/03 11:22:59;;;;;;;24.10;5.43;;;29.10;99.90;;;;;;5012380;28;20271;-67
2022/10/03 11:26:27;;;;;;;25.75;5.80;;;29.10;99.90;;;;;;4991438;28;20197;-67
2022/10/03 11:29:49;;;;;;;11.57;2.92;;;29.00;99.90;;;;;;4974641;28;20546;-67
2022/10/03 11:32:49;;;;;;;12.73;3.17;;;29.00;99.90;;;;;;4989595;28;20220;-67
2022/10/03 11:35:37;;;;;;;26.67;5.57;;;29.10;99.90;;;;;;5005174;28;20184;-67
2022/10/03 11:38:28;;;;;;;25.75;5.35;;;29.20;99.90;;;;;;5030106;28;20633;-67
2022/10/03 11:41:46;;;;;;;28.38;5.63;;;29.30;99.90;;;;;;5028929;28;20180;-67
2022/10/03 11:44:54;;;;;;;20.85;5.50;;;29.20;99.90;;;;;;5014314;28;20189;-66
2022/10/03 11:47:38;;;;;;;22.20;5.70;;;29.10;99.90;;;;;;5019085;28;20746;-67
2022/10/03 11:50:44;;;;;;;24.70;5.75;;;29.10;99.90;;;;;;5015997;28;20710;-67
2022/10/03 11:53:22;;;;;;;21.73;5.00;;;29.10;99.90;;;;;;5008513;28;20618;-66
2022/10/03 11:56:16;;;;;;;20.70;3.80;;;29.20;99.90;;;;;;5002434;28;20551;-67
2022/10/03 11:59:22;;;;;;;11.90;2.75;;;29.10;99.90;;;;;;5016806;28;20200;-66
2022/10/03 12:02:34;;;;;;;12.88;2.83;;;29.00;99.90;;;;;;4989268;28;20220;-66
2022/10/03 12:05:21;;;;;;;12.75;3.10;;;28.90;99.90;;;;;;4995722;28;20602;-66
2022/10/03 12:11:32;;;;;;;13.63;3.08;;;28.90;99.90;;;;;;5003767;28;20216;-66
2022/10/03 12:14:15;;;;;;;15.25;3.13;;;28.90;99.90;;;;;;5017788;28;20215;-66
2022/10/03 12:17:15;;;;;;;13.50;3.50;;;28.70;99.90;;;;;;5013085;28;20193;-66
2022/10/03 12:20:05;;;;;;;12.77;3.10;;;28.60;99.90;;;;;;5005091;28;20642;-67
2022/10/03 12:22:45;;;;;;;10.45;3.20;;;28.50;99.90;;;;;;5002817;28;20198;-66
2022/10/03 12:25:23;;;;;;;11.55;3.05;;;28.60;99.90;;;;;;5015876;28;20563;-67
2022/10/03 12:28:14;;;;;;;11.90;3.53;;;28.70;99.90;;;;;;4998685;28;20189;-67
2022/10/03 12:30:47;;;;;;;10.25;3.15;;;28.60;99.90;;;;;;5001615;28;20207;-67
2022/10/03 12:33:31;;;;;;;31.02;4.60;;;28.40;99.90;;;;;;5006206;28;20181;-67
2022/10/03 12:36:07;;;;;;;27.23;5.28;;;28.50;99.90;;;;;;5003091;28;20681;-67
2022/10/03 12:39:19;;;;;;;26.52;5.38;;;28.40;99.90;;;;;;5007434;28;20196;-67
2022/10/03 12:42:29;;;;;;;22.60;5.18;;;28.30;99.90;;;;;;4985726;28;20184;-67
2022/10/03 12:45:19;;;;;;;30.33;4.88;;;28.30;99.90;;;;;;4997690;28;20192;-67
2022/10/03 12:48:00;;;;;;;27.30;5.30;;;28.20;99.90;;;;;;4993549;28;20626;-67
2022/10/03 12:51:16;;;;;;;25.48;5.68;;;28.10;99.90;;;;;;5016882;28;20276;-66
2022/10/03 12:54:10;;;;;;;19.65;4.28;;;28.10;99.90;;;;;;4987517;28;20210;-66
2022/10/03 12:57:21;;;;;;;21.67;4.32;;;28.10;99.90;;;;;;5008792;28;24095;-67
2022/10/03 13:00:19;;;;;;;29.40;5.35;;;28.00;99.90;;;;;;4954570;28;20729;-67
2022/10/03 13:03:17;;;;;;;23.65;4.93;;;27.90;99.90;;;;;;4993387;28;20188;-67
2022/10/03 13:05:59;;;;;;;33.45;5.32;;;27.80;99.90;;;;;;5002509;28;20291;-66
2022/10/03 13:09:00;;;;;;;22.45;4.15;;;27.70;99.90;;;;;;4998693;28;20192;-67
2022/10/03 13:12:21;;;;;;;21.85;5.10;;;27.70;99.90;;;;;;5010414;28;20243;-67
2022/10/03 13:15:43;;;;;;;30.00;6.00;;;27.80;99.90;;;;;;4931322;29;20211;-67
2022/10/03 13:19:16;;;;;;;29.50;5.05;;;27.70;99.90;;;;;;5003886;28;20183;-66
2022/10/03 13:22:16;;;;;;;27.50;4.78;;;27.60;99.90;;;;;;5000628;28;20842;-67
2022/10/03 13:25:18;;;;;;;20.80;4.65;;;27.50;99.90;;;;;;4999376;28;20287;-66
2022/10/03 13:28:22;;;;;;;23.42;4.65;;;27.50;99.90;;;;;;4989356;28;20242;-66
2022/10/03 13:31:25;;;;;;;20.88;4.38;;;27.40;99.90;;;;;;5007001;28;20247;-66
2022/10/03 13:33:59;;;;;;;20.13;3.80;;;27.50;99.90;;;;;;4970199;28;20217;-66
2022/10/03 13:36:59;;;;;;;17.08;3.78;;;27.50;99.90;;;;;;4988473;28;20187;-66
2022/10/03 13:39:59;;;;;;;16.17;3.90;;;27.40;99.90;;;;;;4996079;28;20189;-66
2022/10/03 13:42:37;;;;;;;19.98;4.13;;;27.30;99.90;;;;;;5011424;28;20669;-66
2022/10/03 13:45:18;;;;;;;14.20;4.32;;;27.30;99.90;;;;;;5006168;28;20238;-66
2022/10/03 13:48:06;;;;;;;14.30;3.75;;;27.30;99.90;;;;;;5000091;28;20231;-66
2022/10/03 13:50:54;;;;;;;23.13;4.57;;;27.20;99.90;;;;;;5010123;28;20192;-66
2022/10/03 13:53:45;;;;;;;18.85;4.13;;;27.20;99.90;;;;;;5007817;28;20200;-66
2022/10/03 13:56:21;;;;;;;15.55;4.05;;;27.10;99.90;;;;;;4999158;28;20182;-66
2022/10/03 13:59:46;;;;;;;18.27;4.30;;;27.00;99.90;;;;;;4986782;28;20193;-66
2022/10/03 14:03:10;;;;;;;19.80;4.38;;;26.90;99.90;;;;;;4997788;28;20297;-66
2022/10/03 14:06:05;;;;;;;15.77;4.13;;;26.90;99.90;;;;;;4976405;28;20188;-66
2022/10/03 14:09:02;;;;;;;15.13;4.28;;;26.80;99.90;;;;;;4980276;28;20185;-66
2022/10/03 14:12:05;;;;;;;16.80;4.28;;;26.70;99.90;;;;;;4994699;28;20218;-66
2022/10/03 14:15:14;;;;;;;23.02;5.22;;;26.70;99.90;;;;;;5002672;28;20208;-65
2022/10/03 14:18:03;;;;;;;17.75;4.30;;;26.70;99.90;;;;;;5004838;28;21125;-65
2022/10/03 14:21:09;;;;;;;13.38;4.13;;;26.60;99.90;;;;;;5013227;28;20235;-66
2022/10/03 14:24:06;;;;;;;21.13;4.88;;;26.60;99.90;;;;;;4985989;28;20207;-67
2022/10/03 14:27:09;;;;;;;16.92;4.75;;;26.40;99.90;;;;;;5008415;28;20672;-66
2022/10/03 14:29:45;;;;;;;14.20;4.47;;;26.30;99.90;;;;;;5024603;28;20188;-66
2022/10/03 14:32:31;;;;;;;16.40;4.10;;;26.20;99.90;;;;;;5007596;28;20213;-67
2022/10/03 14:35:33;;;;;;;14.68;4.32;;;26.30;99.90;;;;;;5016219;28;20691;-66
2022/10/03 14:38:56;;;;;;;18.55;4.85;;;26.20;99.90;;;;;;4989995;28;20187;-66
2022/10/03 14:42:09;;;;;;;18.40;4.53;;;26.00;99.90;;;;;;5009374;28;20224;-66
2022/10/03 14:44:40;;;;;;;11.68;3.47;;;26.00;99.90;;;;;;4955623;28;20520;-66
2022/10/03 14:47:16;;;;;;;17.27;4.53;;;25.90;99.90;;;;;;5012815;28;20947;-66
2022/10/03 14:49:58;;;;;;;20.20;5.28;;;25.80;99.90;;;;;;5012751;28;20550;-66
2022/10/03 14:52:37;;;;;;;30.35;6.65;;;25.70;99.90;;;;;;5012940;28;20300;-66
2022/10/03 14:55:24;;;;;;;23.08;5.22;;;25.70;99.90;;;;;;5011401;28;20176;-66
2022/10/03 14:58:11;;;;;;;23.92;5.85;;;25.60;99.90;;;;;;5011235;28;20655;-66
2022/10/03 15:00:42;;;;;;;15.90;5.30;;;25.50;99.90;;;;;;5012622;28;20267;-66
2022/10/03 15:03:20;;;;;;;22.83;5.28;;;25.50;99.90;;;;;;5012648;28;20191;-66
2022/10/03 15:05:56;;;;;;;30.17;7.50;;;25.40;99.90;;;;;;5012094;28;20220;-66
2022/10/03 15:08:31;;;;;;;19.10;5.13;;;25.30;99.90;;;;;;5011185;28;20188;-65
2022/10/03 15:10:59;;;;;;;20.73;4.97;;;25.30;99.90;;;;;;5010490;28;20180;-66
2022/10/03 15:13:31;;;;;;;20.13;5.40;;;25.20;99.90;;;;;;4994592;28;20885;-66
2022/10/03 15:16:00;;;;;;;19.38;4.93;;;25.10;99.90;;;;;;5012052;28;20181;-66
2022/10/03 15:18:30;;;;;;;26.90;4.85;;;25.10;99.90;;;;;;5012334;28;20273;-66
2022/10/03 15:20:57;;;;;;;19.10;5.05;;;24.90;99.90;;;;;;5010849;28;20272;-66
2022/10/03 15:23:40;;;;;;;16.08;4.18;;;24.90;99.90;;;;;;5012476;28;20176;-66